Time;durP1;ratioP1;P1;durP2;ratioP2;P2;SDS_P1;SDS_P2;PMS_P1;PMS_P2;Temp;Humidity;BMP_temperature;BMP_pressure;BME280_temperature;BME280_humidity;BME280_pressure;Samples;Min_cycle;Max_cycle;Signal;HPM_P1;HPM_P2
2021/12/18 00:01:08;;;;;;;24.13;13.93;;;;;;;5.67;87.72;100183.97;5066632;28;21186;-87
2021/12/18 00:09:59;;;;;;;21.40;13.60;;;;;;;5.66;88.00;100168.47;1492352;26;21113;-87
2021/12/18 00:12:31;;;;;;;22.60;12.97;;;;;;;5.66;88.06;100177.09;4989046;28;21188;-87
2021/12/18 00:14:59;;;;;;;24.80;13.87;;;;;;;5.68;88.00;100169.28;4988467;28;20625;-87
2021/12/18 00:17:27;;;;;;;22.33;12.53;;;;;;;5.64;87.84;100176.25;4994451;28;20629;-87
2021/12/18 00:19:56;;;;;;;25.37;14.27;;;;;;;5.56;88.52;100169.47;4993017;28;20744;-87
2021/12/18 00:22:28;;;;;;;24.60;13.87;;;;;;;5.58;88.06;100167.75;4998120;28;20710;-87
2021/12/18 00:24:56;;;;;;;25.33;13.77;;;;;;;5.50;88.28;100163.56;5000370;28;21006;-87
2021/12/18 00:27:24;;;;;;;22.87;12.93;;;;;;;5.48;88.28;100161.00;5017976;28;20637;-88
2021/12/18 00:29:56;;;;;;;21.27;12.50;;;;;;;5.47;88.35;100161.00;5002170;28;21074;-87
2021/12/18 00:32:24;;;;;;;22.70;12.43;;;;;;;5.42;88.18;100166.25;5010520;28;21227;-87
2021/12/18 00:34:53;;;;;;;22.13;12.17;;;;;;;5.39;87.92;100155.09;5022892;28;20739;-87
2021/12/18 00:37:21;;;;;;;20.90;12.20;;;;;;;5.33;88.03;100166.38;5003696;28;20648;-87
2021/12/18 00:39:55;;;;;;;23.90;13.37;;;;;;;5.32;88.76;100164.69;5005347;28;21236;-87
2021/12/18 00:42:37;;;;;;;22.67;13.90;;;;;;;5.30;88.63;100170.75;5003870;28;21787;-87
2021/12/18 00:45:09;;;;;;;23.60;13.40;;;;;;;5.32;88.28;100174.16;4985716;28;20638;-86
2021/12/18 00:47:38;;;;;;;20.83;13.00;;;;;;;5.34;88.53;100173.28;4994293;28;21053;-87
2021/12/18 00:50:11;;;;;;;22.07;12.57;;;;;;;5.36;89.28;100178.44;5010709;28;20639;-87
2021/12/18 00:52:39;;;;;;;24.83;13.47;;;;;;;5.35;88.84;100180.19;4994338;28;20671;-87
2021/12/18 00:55:09;;;;;;;26.03;14.30;;;;;;;5.36;88.95;100181.03;5005675;28;21152;-88
2021/12/18 00:57:37;;;;;;;23.30;13.80;;;;;;;5.36;88.62;100181.03;5002880;28;20732;-87
2021/12/18 01:00:12;;;;;;;24.20;13.17;;;;;;;5.36;88.62;100178.44;4988942;28;21024;-87
2021/12/18 01:02:43;;;;;;;23.33;13.37;;;;;;;5.37;88.24;100178.41;4990324;28;20631;-87
2021/12/18 01:05:12;;;;;;;24.67;13.50;;;;;;;5.34;88.82;100188.81;5012313;28;21261;-87
2021/12/18 01:07:43;;;;;;;21.80;13.60;;;;;;;5.27;88.81;100187.16;5011102;28;21182;-86
2021/12/18 01:10:28;;;;;;;21.30;12.97;;;;;;;5.26;89.07;100184.59;4986645;28;20645;-87
2021/12/18 01:12:58;;;;;;;26.57;13.43;;;;;;;5.28;89.07;100175.97;4991078;28;20670;-87
2021/12/18 01:15:31;;;;;;;23.70;13.30;;;;;;;5.31;89.25;100178.50;4975544;28;20646;-86
2021/12/18 01:23:33;;;;;;;22.30;12.97;;;;;;;5.32;89.17;100172.47;4992428;28;20708;-87
2021/12/18 01:26:03;;;;;;;21.30;13.03;;;;;;;5.29;89.10;100176.81;4986024;28;20623;-87
2021/12/18 01:28:31;;;;;;;24.17;14.20;;;;;;;5.25;88.87;100176.00;5011130;28;20634;-87
2021/12/18 01:31:02;;;;;;;22.03;12.53;;;;;;;5.24;88.83;100181.19;4991406;28;20660;-87
2021/12/18 01:33:30;;;;;;;21.60;12.60;;;;;;;5.24;88.54;100182.03;4993212;28;20638;-87
2021/12/18 01:36:00;;;;;;;19.27;11.30;;;;;;;5.17;88.88;100179.56;4991824;28;20651;-88
2021/12/18 01:38:30;;;;;;;22.87;13.67;;;;;;;5.13;88.83;100191.69;4992640;28;20637;-87
2021/12/18 01:40:59;;;;;;;24.00;13.20;;;;;;;5.10;89.15;100187.41;5009306;28;20656;-87
2021/12/18 01:46:44;;;;;;;23.93;13.00;;;;;;;5.03;89.01;100184.06;4953690;28;20634;-87
2021/12/18 01:52:05;;;;;;;26.00;14.00;;;;;;;4.98;89.15;100179.84;4932682;28;21236;-87
2021/12/18 01:54:33;;;;;;;23.00;13.03;;;;;;;4.97;89.19;100188.47;4990492;28;21217;-87
2021/12/18 01:57:01;;;;;;;25.90;13.90;;;;;;;4.95;89.61;100182.47;4998810;28;20644;-87
2021/12/18 01:59:34;;;;;;;28.30;13.73;;;;;;;4.96;89.42;100186.75;4973366;28;21478;-87
2021/12/18 02:02:04;;;;;;;25.03;13.20;;;;;;;4.95;90.25;100185.91;4988959;28;20640;-88
2021/12/18 02:04:36;;;;;;;24.43;13.47;;;;;;;4.95;90.36;100178.13;4977344;28;21209;-87
2021/12/18 02:07:07;;;;;;;23.83;13.30;;;;;;;4.99;89.70;100178.94;5004286;28;20768;-87
2021/12/18 02:09:52;;;;;;;26.23;13.43;;;;;;;5.01;89.83;100177.22;4991830;28;20619;-87
2021/12/18 02:12:26;;;;;;;26.27;14.23;;;;;;;5.02;90.18;100176.31;4973847;28;20637;-87
2021/12/18 02:20:39;;;;;;;25.87;13.43;;;;;;;5.00;90.09;100185.84;5004892;28;21226;-87
2021/12/18 02:23:08;;;;;;;24.53;13.50;;;;;;;5.03;89.77;100188.38;4992304;28;20676;-87
2021/12/18 02:25:37;;;;;;;26.13;14.73;;;;;;;5.02;90.19;100189.25;4990218;28;20639;-87
2021/12/18 02:28:15;;;;;;;23.80;14.53;;;;;;;5.02;90.37;100184.06;4973368;28;20629;-87
2021/12/18 02:30:44;;;;;;;25.77;12.60;;;;;;;5.10;90.17;100185.69;5004117;28;21217;-87
2021/12/18 02:33:12;;;;;;;24.73;13.50;;;;;;;5.06;89.35;100181.44;4992700;28;20631;-86
2021/12/18 02:35:46;;;;;;;23.07;13.00;;;;;;;5.08;90.07;100178.81;4989411;28;20638;-87
2021/12/18 02:38:19;;;;;;;22.80;12.30;;;;;;;5.07;89.33;100170.22;4974940;28;21211;-87
2021/12/18 02:41:05;;;;;;;21.87;12.23;;;;;;;5.07;89.58;100182.31;4990608;28;21099;-86
2021/12/18 02:43:36;;;;;;;19.77;11.23;;;;;;;5.04;89.23;100177.19;4989330;28;20624;-87
2021/12/18 02:46:08;;;;;;;23.10;12.50;;;;;;;5.02;89.73;100178.91;4987794;28;20737;-87
2021/12/18 02:48:37;;;;;;;19.13;11.70;;;;;;;4.90;89.35;100179.06;5006979;28;20630;-87
2021/12/18 02:51:10;;;;;;;26.20;13.20;;;;;;;4.80;88.93;100187.81;4987184;28;20718;-87
2021/12/18 02:53:42;;;;;;;19.93;11.00;;;;;;;4.74;89.77;100182.72;4989528;28;20713;-87
2021/12/18 02:56:11;;;;;;;23.33;13.30;;;;;;;4.68;89.58;100194.88;4994295;28;21192;-86
2021/12/18 02:58:42;;;;;;;20.80;11.80;;;;;;;4.62;90.23;100193.19;5008395;28;20635;-88
2021/12/18 03:01:13;;;;;;;17.03;10.47;;;;;;;4.57;90.58;100192.41;4991972;28;20657;-87
2021/12/18 03:03:42;;;;;;;22.90;12.63;;;;;;;4.53;90.96;100185.53;4991504;28;21207;-87
2021/12/18 03:06:23;;;;;;;23.87;12.50;;;;;;;4.51;90.72;100179.56;4988127;28;21308;-87
2021/12/18 03:09:00;;;;;;;20.70;12.10;;;;;;;4.50;91.23;100177.84;4973384;28;20638;-88
2021/12/18 03:20:40;;;;;;;22.70;11.80;;;;;;;4.34;92.54;100171.09;4990035;28;21232;-87
2021/12/18 03:25:37;;;;;;;20.90;12.30;;;;;;;4.30;92.74;100171.16;5003709;28;20635;-87
2021/12/18 03:28:08;;;;;;;23.60;13.43;;;;;;;4.32;93.29;100170.28;4986794;28;20675;-87
2021/12/18 03:30:42;;;;;;;24.70;13.13;;;;;;;4.36;93.04;100168.50;4967755;28;21226;-87
2021/12/18 03:33:10;;;;;;;25.60;13.70;;;;;;;4.43;92.86;100165.84;4990595;28;20643;-88
2021/12/18 03:35:39;;;;;;;24.13;13.60;;;;;;;4.52;92.57;100172.66;4987797;28;20771;-87
2021/12/18 03:38:09;;;;;;;23.13;13.00;;;;;;;4.58;92.59;100170.84;4990074;28;20662;-87
2021/12/18 03:40:38;;;;;;;22.27;12.80;;;;;;;4.63;92.14;100166.50;4991444;28;20766;-87
2021/12/18 03:43:06;;;;;;;22.47;12.80;;;;;;;4.67;92.36;100169.91;4978200;28;20698;-87
2021/12/18 03:45:34;;;;;;;25.70;13.60;;;;;;;4.68;92.04;100172.47;5010441;28;20739;-87
2021/12/18 03:48:03;;;;;;;21.73;11.93;;;;;;;4.68;91.98;100164.72;4976461;28;21214;-87
2021/12/18 03:50:34;;;;;;;24.10;12.23;;;;;;;4.74;91.96;100165.47;4974941;28;21284;-87
2021/12/18 03:53:02;;;;;;;23.43;11.73;;;;;;;4.80;91.81;100152.47;4972455;28;20663;-87
2021/12/18 03:55:35;;;;;;;21.20;12.50;;;;;;;4.83;91.53;100154.19;4974758;28;20649;-87
2021/12/18 03:58:03;;;;;;;22.67;11.60;;;;;;;4.87;91.93;100158.41;4975966;28;20743;-87
2021/12/18 04:00:32;;;;;;;23.97;12.33;;;;;;;4.93;91.98;100154.06;4988151;28;20692;-88
2021/12/18 04:03:00;;;;;;;22.60;12.00;;;;;;;4.96;92.05;100155.72;5007589;28;20665;-87
2021/12/18 04:05:28;;;;;;;20.67;12.43;;;;;;;5.02;92.19;100155.63;4975040;28;20675;-87
2021/12/18 04:08:08;;;;;;;20.57;11.93;;;;;;;5.03;91.23;100147.88;4989189;28;20765;-87
2021/12/18 04:10:39;;;;;;;19.87;11.27;;;;;;;5.08;91.05;100147.81;4975704;28;21327;-88
2021/12/18 04:13:09;;;;;;;19.67;12.00;;;;;;;5.10;91.06;100135.69;4990874;28;20815;-87
2021/12/18 04:15:38;;;;;;;20.57;11.73;;;;;;;5.13;91.24;100135.66;4973544;28;20650;-87
2021/12/18 04:18:09;;;;;;;20.37;11.83;;;;;;;5.12;91.31;100134.81;4990171;28;20657;-87
2021/12/18 04:20:37;;;;;;;20.23;12.20;;;;;;;5.13;90.48;100130.47;4989316;28;21204;-88
2021/12/18 04:23:10;;;;;;;20.90;11.50;;;;;;;5.13;90.55;100137.38;4986269;28;20654;-87
2021/12/18 04:25:40;;;;;;;19.50;10.83;;;;;;;5.16;91.29;100133.91;4973982;28;20671;-87
2021/12/18 04:28:08;;;;;;;19.77;10.77;;;;;;;5.20;91.07;100125.22;4974155;28;20654;-88
2021/12/18 04:30:39;;;;;;;16.60;10.03;;;;;;;5.20;90.98;100128.66;4977572;28;20845;-87
2021/12/18 04:33:11;;;;;;;21.90;12.30;;;;;;;5.22;90.24;100126.91;4989836;28;20658;-87
2021/12/18 04:35:39;;;;;;;21.27;11.63;;;;;;;5.25;90.33;100129.44;4987572;28;21188;-88
2021/12/18 04:38:08;;;;;;;20.07;11.70;;;;;;;5.31;90.98;100126.78;4974141;28;20687;-88
2021/12/18 04:40:37;;;;;;;21.03;11.83;;;;;;;5.37;90.87;100129.25;5003132;28;20663;-87
2021/12/18 04:43:06;;;;;;;19.20;11.40;;;;;;;5.44;90.47;100137.78;4987722;28;20656;-87
2021/12/18 04:45:37;;;;;;;19.37;11.57;;;;;;;5.43;89.63;100142.09;4992139;28;20648;-87
2021/12/18 04:48:07;;;;;;;20.37;11.83;;;;;;;5.38;89.57;100137.88;4986791;28;20650;-87
2021/12/18 04:50:35;;;;;;;21.17;11.73;;;;;;;5.37;90.10;100128.41;4979694;28;20649;-86
2021/12/18 04:53:04;;;;;;;20.20;12.10;;;;;;;5.33;90.26;100127.59;4992880;28;20654;-88
2021/12/18 04:55:32;;;;;;;20.50;11.73;;;;;;;5.35;90.01;100130.16;4986343;28;20666;-88
2021/12/18 04:58:00;;;;;;;20.00;11.10;;;;;;;5.34;90.04;100121.56;5007519;28;20648;-87
2021/12/18 05:00:37;;;;;;;18.83;11.20;;;;;;;5.39;90.31;100121.47;4988078;28;20650;-87
2021/12/18 05:03:07;;;;;;;18.00;9.93;;;;;;;5.33;90.16;100121.56;4969920;28;20685;-87
2021/12/18 05:05:37;;;;;;;22.00;11.87;;;;;;;5.32;90.10;100131.06;5009690;28;20680;-88
2021/12/18 05:08:06;;;;;;;24.43;12.60;;;;;;;5.33;89.45;100119.84;4978738;28;21210;-87
2021/12/18 05:10:34;;;;;;;24.17;11.67;;;;;;;5.36;89.38;100130.13;4977076;28;20665;-87
2021/12/18 05:13:02;;;;;;;18.97;10.50;;;;;;;5.33;89.63;100127.59;4974565;28;23753;-87
2021/12/18 05:15:35;;;;;;;21.43;12.30;;;;;;;5.31;89.42;100123.34;4988751;28;20742;-87
2021/12/18 05:18:05;;;;;;;21.63;11.83;;;;;;;5.28;90.16;100126.81;4995593;28;20713;-87
2021/12/18 05:20:33;;;;;;;20.97;11.50;;;;;;;5.24;90.17;100143.25;5003630;28;20690;-87
2021/12/18 05:23:01;;;;;;;24.17;12.00;;;;;;;5.23;90.51;100149.31;4974135;28;20670;-87
2021/12/18 05:25:30;;;;;;;24.40;12.27;;;;;;;5.22;89.62;100131.22;4976639;28;20642;-87
2021/12/18 05:27:58;;;;;;;22.03;11.80;;;;;;;5.19;90.24;100134.72;4988974;28;20667;-88
2021/12/18 05:30:26;;;;;;;22.53;12.27;;;;;;;5.21;89.67;100137.28;4991282;28;20642;-88
2021/12/18 05:32:56;;;;;;;23.47;11.73;;;;;;;5.17;89.88;100144.22;4987593;28;20656;-87
2021/12/18 05:35:27;;;;;;;21.30;12.20;;;;;;;5.14;89.72;100139.09;4976761;28;21063;-87
2021/12/18 05:38:04;;;;;;;21.77;12.20;;;;;;;5.13;89.87;100147.72;4973072;28;20698;-88
2021/12/18 05:40:34;;;;;;;22.77;11.80;;;;;;;5.14;89.52;100148.56;4977409;28;20691;-87
2021/12/18 05:43:02;;;;;;;23.40;11.73;;;;;;;5.10;89.80;100156.38;4977112;28;20654;-86
2021/12/18 05:45:30;;;;;;;23.07;12.20;;;;;;;5.07;89.90;100157.31;4973752;28;20651;-88
2021/12/18 05:48:00;;;;;;;21.00;11.50;;;;;;;5.03;89.42;100154.78;4993018;28;20677;-88
2021/12/18 05:50:29;;;;;;;18.30;10.20;;;;;;;5.03;89.90;100160.78;4991049;28;20653;-87
2021/12/18 05:53:00;;;;;;;18.47;10.27;;;;;;;5.06;89.84;100170.25;4978066;28;21438;-87
2021/12/18 05:55:30;;;;;;;23.13;11.23;;;;;;;5.07;89.24;100169.38;4975304;28;20658;-87
2021/12/18 05:57:59;;;;;;;25.43;12.97;;;;;;;5.08;89.11;100163.31;4988285;28;20642;-87
2021/12/18 06:00:27;;;;;;;26.77;13.07;;;;;;;5.13;89.90;100163.22;4973982;28;20659;-87
2021/12/18 06:02:55;;;;;;;23.77;12.47;;;;;;;5.13;89.31;100168.41;4986278;28;20732;-87
2021/12/18 06:05:26;;;;;;;19.00;10.13;;;;;;;5.01;88.59;100165.13;4989023;28;21279;-87
2021/12/18 06:07:58;;;;;;;17.70;10.03;;;;;;;4.99;87.79;100173.78;4998638;28;20647;-88
2021/12/18 06:10:29;;;;;;;14.67;8.53;;;;;;;4.89;88.68;100180.81;4984831;28;20666;-87
2021/12/18 06:12:59;;;;;;;15.43;9.03;;;;;;;4.85;87.80;100170.53;4991271;28;21230;-88
2021/12/18 06:15:28;;;;;;;16.23;8.30;;;;;;;4.78;88.32;100168.88;4972167;28;20646;-87
2021/12/18 06:17:56;;;;;;;15.90;8.50;;;;;;;4.74;88.22;100170.66;4973434;28;21284;-87
2021/12/18 06:20:28;;;;;;;13.30;8.20;;;;;;;4.69;88.08;100174.16;4987029;28;20669;-87
2021/12/18 06:22:56;;;;;;;15.03;7.70;;;;;;;4.65;88.25;100171.66;4987471;28;20673;-87
2021/12/18 06:25:24;;;;;;;11.40;6.57;;;;;;;4.62;89.11;100158.78;4976394;28;20657;-87
2021/12/18 06:27:55;;;;;;;13.23;8.10;;;;;;;4.51;87.83;100168.34;4987990;28;20726;-87
2021/12/18 06:30:27;;;;;;;12.50;6.93;;;;;;;4.50;89.12;100154.59;4969875;28;21399;-87
2021/12/18 06:32:55;;;;;;;10.73;6.57;;;;;;;4.52;89.30;100162.31;4972493;28;20652;-86
2021/12/18 06:35:23;;;;;;;13.90;7.83;;;;;;;4.46;88.88;100147.72;5002368;28;20643;-88
2021/12/18 06:37:53;;;;;;;17.90;8.13;;;;;;;4.43;89.86;100154.66;4988880;28;20656;-87
2021/12/18 06:40:21;;;;;;;14.43;8.20;;;;;;;4.46;89.65;100154.63;5002793;28;20749;-87
2021/12/18 06:42:51;;;;;;;12.57;6.97;;;;;;;4.49;89.07;100145.13;4985977;28;21218;-87
2021/12/18 06:45:24;;;;;;;14.00;7.93;;;;;;;4.52;89.02;100155.41;4981035;28;20645;-87
2021/12/18 06:47:53;;;;;;;14.67;7.70;;;;;;;4.57;89.28;100160.53;4969780;28;20667;-87
2021/12/18 06:50:21;;;;;;;13.83;7.47;;;;;;;4.62;88.99;100157.03;4984452;28;21243;-88
2021/12/18 06:52:50;;;;;;;12.80;7.27;;;;;;;4.66;89.02;100155.25;4986894;28;20640;-86
2021/12/18 06:55:21;;;;;;;13.57;7.27;;;;;;;4.69;88.94;100158.66;4978073;28;20640;-87
2021/12/18 06:57:49;;;;;;;13.13;7.30;;;;;;;4.66;88.33;100158.72;4989593;28;20654;-86
2021/12/18 07:00:19;;;;;;;16.17;9.00;;;;;;;4.63;89.22;100163.91;5002396;28;20750;-87
2021/12/18 07:02:47;;;;;;;15.30;7.23;;;;;;;4.68;88.38;100172.47;4989636;28;20648;-86
2021/12/18 07:05:16;;;;;;;16.57;7.77;;;;;;;4.68;88.31;100169.03;4970715;28;20809;-87
2021/12/18 07:07:47;;;;;;;14.60;8.70;;;;;;;4.66;88.67;100168.16;5001417;28;20657;-87
2021/12/18 07:10:18;;;;;;;17.03;8.73;;;;;;;4.68;87.65;100175.88;4988323;28;20694;-86
2021/12/18 07:12:48;;;;;;;15.20;8.10;;;;;;;4.66;88.29;100174.22;4988732;28;21007;-88
2021/12/18 07:15:16;;;;;;;15.20;8.23;;;;;;;4.63;88.75;100182.00;4984023;28;20690;-87
2021/12/18 07:17:44;;;;;;;16.10;8.37;;;;;;;4.66;88.50;100181.97;4970798;28;21263;-87
2021/12/18 07:20:13;;;;;;;18.83;9.33;;;;;;;4.71;88.70;100183.59;4987750;28;20647;-87
2021/12/18 07:22:41;;;;;;;14.90;8.03;;;;;;;4.75;88.71;100184.41;4970180;28;20707;-87
2021/12/18 07:25:11;;;;;;;19.00;10.57;;;;;;;4.79;87.71;100193.84;4970443;28;20666;-88
2021/12/18 07:27:39;;;;;;;15.20;8.23;;;;;;;4.80;88.35;100188.66;4985252;28;21217;-87
2021/12/18 07:30:16;;;;;;;13.90;7.93;;;;;;;4.76;88.60;100199.06;4987067;28;20753;-88
2021/12/18 07:32:47;;;;;;;13.90;8.37;;;;;;;4.75;88.01;100203.38;5001756;28;20640;-87
2021/12/18 07:35:15;;;;;;;20.90;12.50;;;;;;;4.76;88.20;100204.22;4981564;28;20646;-87
2021/12/18 07:37:44;;;;;;;23.50;15.20;;;;;;;4.81;88.31;100199.84;4968951;28;20737;-86
2021/12/18 07:40:13;;;;;;;32.33;19.60;;;;;;;4.81;88.27;100199.84;4986714;28;21155;-86
2021/12/18 07:42:41;;;;;;;25.20;16.03;;;;;;;4.86;87.76;100198.09;4985703;28;20656;-87
2021/12/18 07:45:13;;;;;;;18.00;11.83;;;;;;;4.88;87.96;100196.31;4980294;28;20654;-87
2021/12/18 07:47:41;;;;;;;17.20;9.00;;;;;;;4.95;87.50;100198.81;4971689;28;20653;-87
2021/12/18 07:50:17;;;;;;;15.63;8.60;;;;;;;4.96;87.38;100186.75;4971116;28;21254;-87
2021/12/18 07:52:46;;;;;;;19.80;10.93;;;;;;;5.03;87.41;100193.56;4987698;28;20640;-87
2021/12/18 07:55:14;;;;;;;13.80;8.60;;;;;;;5.13;87.15;100195.13;4986154;28;21081;-87
2021/12/18 07:57:42;;;;;;;12.70;7.93;;;;;;;5.20;88.04;100195.91;4968508;28;20706;-87
2021/12/18 08:00:15;;;;;;;14.80;7.80;;;;;;;5.25;87.01;100195.84;5003415;28;21018;-88
2021/12/18 08:02:43;;;;;;;12.10;7.50;;;;;;;5.29;86.76;100195.78;4986691;28;20650;-87
2021/12/18 08:05:14;;;;;;;14.40;8.23;;;;;;;5.31;87.14;100191.44;4984723;28;20669;-87
2021/12/18 08:07:42;;;;;;;16.57;9.10;;;;;;;5.36;87.54;100196.53;4997734;28;21337;-87
2021/12/18 08:10:11;;;;;;;17.13;8.37;;;;;;;5.34;86.34;100198.31;4985788;28;20755;-88
2021/12/18 08:12:40;;;;;;;16.00;9.20;;;;;;;5.28;86.22;100196.66;4986997;28;20738;-87
2021/12/18 08:15:09;;;;;;;15.43;9.27;;;;;;;5.28;86.47;100193.22;4971055;28;20666;-88
2021/12/18 08:17:38;;;;;;;13.60;8.67;;;;;;;5.24;86.20;100192.38;4983900;28;20657;-87
2021/12/18 08:20:09;;;;;;;14.60;7.80;;;;;;;5.23;86.53;100194.97;4989024;28;20646;-87
2021/12/18 08:22:37;;;;;;;13.53;7.20;;;;;;;5.25;86.33;100193.25;4983853;28;21310;-87
2021/12/18 08:25:06;;;;;;;13.27;7.43;;;;;;;5.19;86.25;100193.34;4983124;28;20732;-88
2021/12/18 08:27:34;;;;;;;12.20;8.00;;;;;;;5.18;86.00;100194.19;4985769;28;20725;-88
2021/12/18 08:30:03;;;;;;;14.10;8.10;;;;;;;5.16;86.59;100194.22;5001329;28;20761;-88
2021/12/18 08:32:31;;;;;;;14.40;8.33;;;;;;;5.10;86.28;100195.16;4991690;28;20661;-88
2021/12/18 08:35:01;;;;;;;15.30;9.90;;;;;;;5.09;86.44;100198.66;4970432;28;20658;-87
2021/12/18 08:37:29;;;;;;;13.63;8.50;;;;;;;5.04;86.74;100196.13;4984334;28;20708;-88
2021/12/18 08:39:57;;;;;;;14.17;8.80;;;;;;;5.06;86.85;100203.84;4986708;28;20640;-88
2021/12/18 08:42:26;;;;;;;15.70;8.63;;;;;;;5.14;86.17;100201.16;4971584;28;20643;-88
2021/12/18 08:44:54;;;;;;;19.43;11.37;;;;;;;5.14;86.67;100206.31;4986780;28;20777;-87
2021/12/18 08:47:22;;;;;;;15.10;9.20;;;;;;;5.18;86.67;100197.63;4987454;28;21244;-88
2021/12/18 08:49:50;;;;;;;13.47;8.57;;;;;;;5.20;87.22;100185.56;4968360;28;21262;-87
2021/12/18 08:52:21;;;;;;;16.50;9.30;;;;;;;5.28;86.87;100191.47;4999059;28;20644;-86
2021/12/18 08:54:49;;;;;;;16.20;9.30;;;;;;;5.32;86.51;100193.16;4985723;28;20737;-86
2021/12/18 08:57:19;;;;;;;12.77;7.90;;;;;;;5.38;86.58;100195.66;4986114;28;20656;-85
2021/12/18 08:59:47;;;;;;;13.37;8.20;;;;;;;5.43;86.00;100199.03;4969622;28;20650;-85
2021/12/18 09:02:15;;;;;;;15.07;8.33;;;;;;;5.47;86.72;100189.47;4983042;28;20666;-85
2021/12/18 09:04:43;;;;;;;17.30;8.97;;;;;;;5.53;86.11;100192.81;4983730;28;20663;-85
2021/12/18 09:07:12;;;;;;;15.23;8.63;;;;;;;5.55;85.92;100200.56;4995068;28;21478;-85
2021/12/18 09:09:41;;;;;;;14.80;8.13;;;;;;;5.56;86.18;100200.53;4994951;28;21277;-84
2021/12/18 09:12:12;;;;;;;16.40;8.67;;;;;;;5.58;86.09;100206.56;4987653;28;21253;-87
2021/12/18 09:14:42;;;;;;;16.17;9.57;;;;;;;5.60;86.13;100196.19;4986660;28;20742;-86
2021/12/18 09:17:10;;;;;;;15.30;8.53;;;;;;;5.62;85.68;100195.28;4966537;28;20642;-86
2021/12/18 09:19:41;;;;;;;14.60;8.57;;;;;;;5.59;85.73;100190.13;4986236;28;20680;-86
2021/12/18 09:22:10;;;;;;;17.60;9.60;;;;;;;5.65;85.61;100195.22;4974154;28;20756;-83
2021/12/18 09:24:38;;;;;;;13.50;8.03;;;;;;;5.69;86.33;100196.91;4964720;28;20664;-84
2021/12/18 09:27:08;;;;;;;17.17;9.70;;;;;;;5.71;85.80;100187.38;4998217;28;20653;-86
2021/12/18 09:29:36;;;;;;;13.67;8.27;;;;;;;5.76;85.58;100196.81;4985390;28;21239;-87
2021/12/18 09:32:05;;;;;;;15.47;9.20;;;;;;;5.82;85.49;100198.47;4998109;28;20763;-86
2021/12/18 09:34:34;;;;;;;15.33;8.47;;;;;;;5.84;84.93;100191.53;4968674;28;20652;-86
2021/12/18 09:37:05;;;;;;;13.83;8.73;;;;;;;5.86;85.25;100184.56;4970911;28;20638;-86
2021/12/18 09:39:35;;;;;;;14.70;8.60;;;;;;;5.89;85.33;100182.78;5006952;28;20685;-85
2021/12/18 09:42:04;;;;;;;15.97;8.63;;;;;;;5.86;85.05;100179.38;5005170;28;20656;-86
2021/12/18 09:44:35;;;;;;;12.73;8.03;;;;;;;5.83;84.37;100179.44;4989411;28;20649;-85
2021/12/18 09:47:06;;;;;;;15.83;8.50;;;;;;;5.80;85.17;100170.00;4990342;28;20659;-85
2021/12/18 09:49:39;;;;;;;14.40;8.90;;;;;;;5.81;85.10;100176.88;4990614;28;20637;-85
2021/12/18 09:52:07;;;;;;;13.53;8.30;;;;;;;5.80;85.03;100161.38;4986056;28;20702;-86
2021/12/18 09:54:36;;;;;;;13.10;7.90;;;;;;;5.82;85.07;100167.41;4964617;28;20651;-84
2021/12/18 09:57:04;;;;;;;12.60;7.83;;;;;;;5.76;85.24;100165.75;5010104;28;20655;-85
2021/12/18 09:59:37;;;;;;;17.47;10.20;;;;;;;5.78;85.30;100163.97;5004546;28;20652;-85
2021/12/18 10:02:06;;;;;;;14.33;8.70;;;;;;;5.77;84.95;100157.13;4972445;28;20656;-85
2021/12/18 10:04:36;;;;;;;19.07;9.17;;;;;;;5.77;85.07;100157.13;4988127;28;20662;-85
2021/12/18 10:07:16;;;;;;;14.63;9.07;;;;;;;5.82;85.07;100146.69;4966121;28;20686;-86
2021/12/18 10:09:44;;;;;;;15.10;9.47;;;;;;;5.87;84.57;100147.47;4991202;28;20656;-87
2021/12/18 10:12:18;;;;;;;16.23;10.23;;;;;;;5.92;84.78;100146.47;4967328;28;20750;-85
2021/12/18 10:14:52;;;;;;;16.83;9.40;;;;;;;5.97;84.77;100149.88;4979314;28;20270;-84
2021/12/18 10:17:24;;;;;;;14.30;9.30;;;;;;;6.01;84.42;100145.47;5004979;28;20642;-85
2021/12/18 10:19:54;;;;;;;15.87;9.70;;;;;;;6.04;84.75;100143.69;5006807;28;20741;-85
2021/12/18 10:22:24;;;;;;;15.20;9.27;;;;;;;6.05;83.91;100136.78;4988465;28;20646;-86
2021/12/18 10:25:05;;;;;;;15.23;9.20;;;;;;;6.05;84.08;100132.44;4988624;28;20693;-84
2021/12/18 10:27:34;;;;;;;16.60;9.43;;;;;;;6.10;84.19;100128.03;4978765;28;20643;-85
2021/12/18 10:30:15;;;;;;;15.60;10.00;;;;;;;6.15;84.04;100126.25;5002392;28;20661;-85
2021/12/18 10:32:55;;;;;;;16.73;9.80;;;;;;;6.22;84.77;100127.81;4991532;28;20654;-85
2021/12/18 10:35:23;;;;;;;16.03;9.27;;;;;;;6.26;84.09;100125.13;4968519;28;21993;-85
2021/12/18 10:37:51;;;;;;;14.20;8.87;;;;;;;6.28;84.18;100128.53;5006717;28;20648;-84
2021/12/18 10:40:20;;;;;;;17.70;9.57;;;;;;;6.33;84.75;100125.88;4978253;28;20630;-85
2021/12/18 10:42:49;;;;;;;15.80;9.87;;;;;;;6.35;83.92;100129.31;4991614;28;20660;-84
2021/12/18 10:45:20;;;;;;;14.60;8.77;;;;;;;6.38;83.67;100135.28;4988730;28;20666;-84
2021/12/18 10:47:57;;;;;;;15.63;10.83;;;;;;;6.36;83.88;100128.41;4974678;28;20645;-87
2021/12/18 10:50:30;;;;;;;17.47;10.70;;;;;;;6.26;83.90;100127.72;4988526;28;20657;-85
2021/12/18 10:53:03;;;;;;;18.73;11.33;;;;;;;6.26;84.03;100130.31;4984821;28;20745;-86
2021/12/18 10:55:38;;;;;;;19.73;12.20;;;;;;;6.27;83.87;100126.84;4990761;28;20738;-86
2021/12/18 10:58:09;;;;;;;17.93;10.30;;;;;;;6.28;83.97;100115.59;4984172;28;20651;-86
2021/12/18 11:00:43;;;;;;;18.10;11.50;;;;;;;6.33;83.45;100121.56;5004353;28;21094;-86
2021/12/18 11:03:32;;;;;;;24.20;13.43;;;;;;;6.31;84.30;100106.91;5004470;28;20720;-85
2021/12/18 11:06:19;;;;;;;23.20;12.57;;;;;;;6.28;84.72;100106.97;4972109;28;20671;-85
2021/12/18 11:09:05;;;;;;;20.17;12.80;;;;;;;6.30;84.67;100102.59;4985567;28;20652;-86
2021/12/18 11:14:27;;;;;;;17.47;10.77;;;;;;;6.26;84.29;100088.88;4986293;28;21212;-86
2021/12/18 11:16:59;;;;;;;19.20;11.63;;;;;;;6.17;83.69;100089.03;4973205;28;21119;-85
2021/12/18 11:19:31;;;;;;;23.57;13.77;;;;;;;6.16;84.35;100084.78;4993948;28;20737;-85
2021/12/18 11:22:00;;;;;;;18.60;11.87;;;;;;;6.22;84.59;100087.25;4989741;28;20657;-85
2021/12/18 11:24:32;;;;;;;19.50;12.00;;;;;;;6.28;84.08;100081.91;5005693;28;20661;-87
2021/12/18 11:27:03;;;;;;;21.53;11.43;;;;;;;6.35;84.52;100078.34;4991504;28;20842;-89
2021/12/18 11:29:34;;;;;;;19.03;12.30;;;;;;;6.33;83.89;100074.94;4973348;28;20665;-92
2021/12/18 11:32:04;;;;;;;17.63;11.43;;;;;;;6.34;84.33;100071.44;4973600;28;20737;-91
2021/12/18 11:34:37;;;;;;;18.90;12.03;;;;;;;6.33;83.72;100059.38;4976755;28;20646;-87
2021/12/18 11:37:10;;;;;;;19.27;11.87;;;;;;;6.32;83.81;100062.84;4998322;28;20754;-87
2021/12/18 11:39:39;;;;;;;21.73;14.50;;;;;;;6.38;84.39;100070.50;5005463;28;21118;-87
2021/12/18 11:42:08;;;;;;;19.97;13.33;;;;;;;6.39;83.79;100069.63;4973054;28;20211;-87
2021/12/18 11:44:38;;;;;;;23.20;13.67;;;;;;;6.42;83.82;100064.38;4989233;28;20640;-87
2021/12/18 11:47:33;;;;;;;25.27;13.53;;;;;;;6.37;83.32;100053.22;4987412;28;20649;-87
2021/12/18 11:50:05;;;;;;;27.17;15.20;;;;;;;6.34;83.74;100053.28;4980398;28;20703;-87
2021/12/18 11:52:59;;;;;;;26.37;14.60;;;;;;;6.36;84.12;100048.09;4967836;28;21046;-85
2021/12/18 11:55:30;;;;;;;24.60;15.80;;;;;;;6.42;84.12;100051.44;4972021;28;21028;-86
2021/12/18 11:58:00;;;;;;;25.07;15.10;;;;;;;6.39;84.19;100050.63;4988310;28;20638;-85
2021/12/18 12:00:34;;;;;;;21.20;13.70;;;;;;;6.33;84.19;100053.31;5002499;28;20676;-86
2021/12/18 12:03:05;;;;;;;21.60;13.90;;;;;;;6.30;84.35;100046.50;5004448;28;20716;-85
2021/12/18 12:05:39;;;;;;;23.67;13.23;;;;;;;6.37;84.97;100045.47;4972691;28;20666;-87
2021/12/18 12:08:29;;;;;;;19.63;12.50;;;;;;;6.41;84.62;100036.75;4975593;28;20657;-88
2021/12/18 12:11:16;;;;;;;21.93;12.60;;;;;;;6.42;83.94;100035.88;4972432;28;21456;-88
2021/12/18 12:13:52;;;;;;;18.60;11.20;;;;;;;6.43;84.42;100032.38;4985945;28;21188;-88